Time;durP1;ratioP1;P1;durP2;ratioP2;P2;SDS_P1;SDS_P2;PMS_P1;PMS_P2;Temp;Humidity;BMP_temperature;BMP_pressure;BME280_temperature;BME280_humidity;BME280_pressure;Samples;Min_cycle;Max_cycle;Signal;HPM_P1;HPM_P2
2021/07/05 04:06:24;;;;;;;;;;;;;;;;;;;;;
2021/07/05 04:15:48;;;;;;;0.60;0.60;;;13.50;99.90;;;;;;4530614;31;20502;-87
2021/07/05 04:19:10;;;;;;;;;;;;;;;;;;;;;
2021/07/05 04:27:25;;;;;;;;;;;;;;;;;;;;;
2021/07/05 04:42:04;;;;;;;;;;;;;;;;;;;;;
2021/07/05 04:55:46;;;;;;;0.75;0.60;;;13.30;99.90;;;;;;6047650;22;1602279;-84
2021/07/05 04:59:00;;;;;;;1.17;1.08;;;13.90;99.90;;;;;;6009848;23;20023;-86
2021/07/05 05:13:04;;;;;;;0.65;0.65;;;14.60;99.90;;;;;;6049432;23;20038;31
2021/07/05 05:17:09;;;;;;;1.42;1.15;;;14.80;99.90;;;;;;5948083;23;20430;-86
2021/07/05 05:21:35;;;;;;;0.98;0.88;;;15.10;99.90;;;;;;6136205;23;20026;-87
2021/07/05 06:00:24;;;;;;;1.55;1.20;;;15.80;99.90;;;;;;6099520;23;20365;-92
2021/07/05 06:13:51;;;;;;;0.90;0.60;;;16.40;99.90;;;;;;6082206;23;20023;-92
2021/07/05 06:16:25;;;;;;;1.90;1.13;;;16.60;99.90;;;;;;6042161;23;20076;-91
2021/07/05 06:19:48;;;;;;;1.70;1.05;;;16.80;99.90;;;;;;6044062;23;20029;-92
2021/07/05 06:23:01;;;;;;;2.20;1.10;;;17.00;99.90;;;;;;6008753;23;20019;-91
2021/07/05 06:25:38;;;;;;;4.50;0.70;;;17.20;99.90;;;;;;6000911;23;20034;-92
2021/07/05 06:28:33;;;;;;;0.85;0.77;;;17.40;99.90;;;;;;6039857;23;20019;-91
2021/07/05 06:31:03;;;;;;;0.70;0.60;;;17.40;99.90;;;;;;6012427;23;20019;-92
2021/07/05 06:33:32;;;;;;;0.60;0.60;;;17.40;99.90;;;;;;6023569;23;20022;-91
2021/07/05 06:36:05;;;;;;;0.80;0.73;;;17.40;99.90;;;;;;6040660;23;20024;-91
2021/07/05 06:38:38;;;;;;;2.10;1.10;;;17.50;99.90;;;;;;6012843;23;20030;-91
2021/07/05 06:47:17;;;;;;;0.68;0.60;;;17.80;99.90;;;;;;6083115;23;20037;-91
2021/07/05 06:51:24;;;;;;;0.93;0.70;;;17.90;99.90;;;;;;5958645;23;20028;-90
2021/07/05 06:54:40;;;;;;;1.70;1.25;;;18.00;99.90;;;;;;5933057;23;20037;-90
2021/07/05 06:57:29;;;;;;;1.10;1.10;;;18.20;99.90;;;;;;5898639;24;20033;-88
2021/07/05 07:00:32;;;;;;;1.20;1.10;;;18.20;99.90;;;;;;5920925;24;20051;-89
2021/07/05 07:03:05;;;;;;;0.77;0.75;;;18.40;99.90;;;;;;5873078;24;20029;-89
2021/07/05 07:05:39;;;;;;;0.95;0.65;;;18.50;99.90;;;;;;5919499;24;20048;-89
2021/07/05 07:08:11;;;;;;;0.55;0.55;;;18.70;99.90;;;;;;5895765;24;20025;-88
2021/07/05 07:10:47;;;;;;;2.65;0.65;;;18.70;99.90;;;;;;5905682;24;20036;-91
2021/07/05 07:13:39;;;;;;;1.23;0.98;;;18.60;99.90;;;;;;5935890;24;20032;-89
2021/07/05 07:16:07;;;;;;;0.43;0.43;;;18.60;99.90;;;;;;5922267;24;20508;-89
2021/07/05 07:21:24;;;;;;;1.00;0.65;;;19.00;99.90;;;;;;5932362;23;20670;-90
2021/07/05 07:24:29;;;;;;;;;;;;;;;;;;;;;
2021/07/05 07:27:22;;;;;;;0.77;0.77;;;19.10;99.90;;;;;;5980902;23;20033;-91
2021/07/05 07:29:55;;;;;;;0.68;0.40;;;19.10;99.90;;;;;;6057564;23;20027;-90
2021/07/05 07:32:42;;;;;;;2.22;1.13;;;19.20;99.90;;;;;;6040654;23;20019;-91
2021/07/05 07:35:17;;;;;;;1.02;0.98;;;19.30;99.90;;;;;;6048335;23;20031;-92
2021/07/05 07:38:11;;;;;;;0.90;0.43;;;19.20;99.90;;;;;;6061896;23;20026;-91
2021/07/05 07:40:43;;;;;;;0.40;0.40;;;19.30;99.90;;;;;;6070681;23;20433;-92
2021/07/05 07:43:19;;;;;;;0.60;0.60;;;19.60;99.90;;;;;;6074415;23;20026;-93
2021/07/05 07:45:50;;;;;;;1.77;1.02;;;19.80;99.90;;;;;;6067948;23;20030;-91
2021/07/05 07:48:20;;;;;;;5.85;1.20;;;20.00;99.90;;;;;;6038892;23;20027;-89
2021/07/05 07:50:53;;;;;;;0.93;0.88;;;20.20;99.90;;;;;;6062233;23;20023;-91
2021/07/05 07:53:59;;;;;;;1.02;1.02;;;19.90;99.90;;;;;;6045202;23;20042;-91
2021/07/05 07:56:35;;;;;;;2.05;0.80;;;19.90;99.90;;;;;;6065320;23;20454;-93
2021/07/05 07:59:15;;;;;;;1.88;0.63;;;20.10;99.90;;;;;;6053567;23;20365;-90
2021/07/05 08:01:51;;;;;;;1.15;0.93;;;20.20;99.90;;;;;;6096901;23;20327;-89
2021/07/05 08:04:19;;;;;;;1.85;0.88;;;20.40;99.90;;;;;;6066917;23;20029;-90
2021/07/05 08:06:47;;;;;;;0.60;0.60;;;20.70;99.90;;;;;;6013142;23;20471;-91
2021/07/05 08:09:15;;;;;;;1.92;1.50;;;20.60;99.90;;;;;;6044045;23;20022;-89
2021/07/05 08:11:43;;;;;;;0.45;0.45;;;20.60;99.90;;;;;;6049228;23;20439;-91
2021/07/05 08:14:11;;;;;;;0.75;0.73;;;20.60;99.90;;;;;;6015162;23;20736;-90
2021/07/05 08:16:39;;;;;;;1.60;0.90;;;20.40;99.90;;;;;;6048418;23;20025;-89
2021/07/05 08:19:12;;;;;;;0.60;0.60;;;20.10;99.90;;;;;;6073746;23;20022;-91
2021/07/05 08:21:47;;;;;;;0.75;0.75;;;19.90;99.90;;;;;;6067368;23;20023;-93
2021/07/05 08:24:27;;;;;;;0.55;0.50;;;19.80;99.90;;;;;;6037721;23;20338;-90
2021/07/05 08:27:15;;;;;;;0.73;0.73;;;19.70;99.90;;;;;;6062257;23;20026;-89
2021/07/05 08:29:43;;;;;;;1.15;1.08;;;19.60;99.90;;;;;;6013931;23;20022;-91
2021/07/05 08:32:11;;;;;;;1.35;0.93;;;19.70;99.90;;;;;;6048661;23;20015;-92
2021/07/05 08:34:39;;;;;;;0.70;0.65;;;19.80;99.90;;;;;;6042037;23;20033;-90
2021/07/05 08:37:10;;;;;;;1.10;0.77;;;19.90;99.90;;;;;;6070805;23;20483;-91
2021/07/05 08:39:51;;;;;;;1.38;1.27;;;20.00;99.90;;;;;;6042362;23;20443;-91
2021/07/05 08:42:26;;;;;;;1.50;1.33;;;19.60;99.90;;;;;;6044003;23;20027;-92
2021/07/05 08:45:17;;;;;;;2.83;1.15;;;19.60;99.90;;;;;;6023306;23;20026;-92
2021/07/05 08:47:58;;;;;;;0.68;0.68;;;19.50;99.90;;;;;;6034289;23;20035;-92
2021/07/05 08:50:30;;;;;;;1.20;1.13;;;19.60;99.90;;;;;;6034694;23;20054;-91
2021/07/05 08:53:07;;;;;;;3.80;1.50;;;19.80;99.90;;;;;;6041644;23;20023;-88
2021/07/05 08:55:35;;;;;;;0.65;0.60;;;20.00;99.90;;;;;;6043982;23;20019;-93
2021/07/05 08:58:04;;;;;;;0.80;0.80;;;20.20;99.90;;;;;;6037084;23;20019;-91
2021/07/05 09:00:32;;;;;;;3.13;0.60;;;20.40;99.90;;;;;;6044231;23;20018;-91
2021/07/05 09:03:01;;;;;;;1.17;0.95;;;20.60;99.90;;;;;;6004475;23;20028;-90
2021/07/05 09:05:29;;;;;;;0.57;0.57;;;20.40;99.90;;;;;;6011944;23;20035;-91
2021/07/05 09:08:07;;;;;;;0.77;0.70;;;20.30;99.90;;;;;;6014456;23;20344;-91
2021/07/05 09:10:45;;;;;;;0.70;0.70;;;20.50;99.90;;;;;;6028571;23;20031;-92
2021/07/05 09:13:20;;;;;;;1.20;0.80;;;20.80;99.90;;;;;;6043192;23;20034;-90
2021/07/05 09:15:56;;;;;;;0.75;0.68;;;21.00;99.90;;;;;;6033741;23;20034;-90
2021/07/05 09:18:33;;;;;;;1.15;0.60;;;20.60;99.90;;;;;;6058952;23;20348;-90
2021/07/05 09:21:19;;;;;;;0.70;0.70;;;20.40;99.90;;;;;;6033570;23;20023;-89
2021/07/05 09:24:14;;;;;;;0.73;0.73;;;20.30;99.90;;;;;;6019159;23;20019;-90
2021/07/05 09:27:00;;;;;;;1.33;0.68;;;20.20;99.90;;;;;;6035151;23;20027;-88
2021/07/05 09:29:31;;;;;;;3.08;0.80;;;20.20;99.90;;;;;;6040556;23;20019;-90
2021/07/05 09:32:01;;;;;;;2.70;1.52;;;20.30;99.90;;;;;;6044383;23;20022;-90
2021/07/05 09:34:36;;;;;;;0.80;0.80;;;20.30;99.90;;;;;;6037879;23;20479;-90
2021/07/05 09:37:21;;;;;;;1.00;1.00;;;20.20;99.90;;;;;;6001930;23;20030;-91
2021/07/05 09:44:18;;;;;;;0.90;0.80;;;20.10;99.90;;;;;;5969229;23;20024;-92
2021/07/05 09:46:58;;;;;;;0.73;0.73;;;20.10;99.90;;;;;;6010920;23;20058;-93
2021/07/05 09:49:37;;;;;;;0.68;0.55;;;20.10;99.90;;;;;;6039001;23;20023;-91
2021/07/05 09:52:40;;;;;;;0.98;0.88;;;20.20;99.90;;;;;;6038915;23;20011;-92
2021/07/05 09:55:18;;;;;;;0.63;0.63;;;20.30;99.90;;;;;;5938455;23;20032;-93
2021/07/05 09:58:24;;;;;;;;;;;20.30;99.90;;;;;;5974013;23;20035;-90
2021/07/05 10:01:09;;;;;;;0.65;0.65;;;20.30;99.90;;;;;;5989397;23;20342;-86
2021/07/05 10:03:40;;;;;;;0.60;0.60;;;20.20;99.90;;;;;;6012524;23;20370;-85
2021/07/05 10:06:19;;;;;;;2.17;0.85;;;20.10;99.90;;;;;;5978175;23;20031;-86
2021/07/05 10:08:56;;;;;;;1.55;0.70;;;20.30;99.90;;;;;;5975153;23;20031;-86
2021/07/05 10:11:27;;;;;;;0.70;0.70;;;20.40;99.90;;;;;;5978284;23;20024;-86
2021/07/05 10:14:30;;;;;;;1.25;0.88;;;20.40;99.90;;;;;;5965527;23;20034;-91
2021/07/05 10:17:16;;;;;;;0.60;0.60;;;20.50;99.90;;;;;;5937518;24;20368;-89
2021/07/05 10:19:50;;;;;;;0.70;0.60;;;20.50;99.90;;;;;;5933487;23;20028;-87
2021/07/05 10:22:28;;;;;;;0.60;0.60;;;20.30;99.90;;;;;;5921342;24;20133;-91
2021/07/05 10:25:03;;;;;;;0.70;0.70;;;20.20;99.90;;;;;;5931274;24;20027;-89
2021/07/05 10:27:36;;;;;;;0.80;0.73;;;20.10;99.90;;;;;;6020551;23;20023;-91
2021/07/05 10:30:39;;;;;;;2.58;0.73;;;20.10;99.90;;;;;;6019227;23;20545;-93
2021/07/05 10:33:15;;;;;;;0.60;0.50;;;20.10;99.90;;;;;;5984365;23;20025;-91
2021/07/05 10:36:12;;;;;;;2.38;0.90;;;20.10;99.90;;;;;;6003777;23;20023;-93
2021/07/05 10:44:02;;;;;;;0.73;0.73;;;20.60;99.90;;;;;;5991805;23;20098;-93
2021/07/05 10:46:50;;;;;;;1.85;1.25;;;20.50;99.90;;;;;;6025687;23;20029;-89
2021/07/05 10:53:33;;;;;;;0.40;0.40;;;20.60;99.90;;;;;;5919453;24;20029;-93
2021/07/05 10:56:24;;;;;;;1.27;1.00;;;20.80;99.90;;;;;;5948553;24;20020;-90
2021/07/05 10:59:13;;;;;;;0.93;0.70;;;20.80;99.90;;;;;;5932927;24;20020;-92
2021/07/05 11:02:00;;;;;;;1.02;1.02;;;20.70;99.90;;;;;;6041346;23;20022;-89
2021/07/05 11:05:08;;;;;;;2.47;0.80;;;20.70;99.90;;;;;;5965417;23;20585;-87
2021/07/05 11:07:49;;;;;;;3.70;0.52;;;20.70;99.90;;;;;;6003474;23;20447;-92
2021/07/05 11:15:49;;;;;;;0.75;0.75;;;20.70;99.90;;;;;;5952257;23;20132;-90
2021/07/05 11:18:45;;;;;;;0.73;0.73;;;20.90;99.90;;;;;;5966558;23;20032;-89
2021/07/05 11:21:24;;;;;;;6.00;1.17;;;20.90;99.90;;;;;;5930236;24;20117;-84
2021/07/05 11:23:59;;;;;;;1.30;0.82;;;20.90;99.90;;;;;;5952504;24;20016;-84
2021/07/05 11:26:41;;;;;;;2.97;0.88;;;20.90;99.90;;;;;;5977549;24;20032;-85
2021/07/05 11:29:15;;;;;;;0.85;0.65;;;20.90;99.90;;;;;;5928582;23;20024;-84
2021/07/05 11:31:57;;;;;;;1.38;0.80;;;21.00;99.90;;;;;;5960658;24;20046;-84
2021/07/05 11:34:46;;;;;;;0.75;0.65;;;21.10;99.90;;;;;;5953923;23;20035;-87
2021/07/05 11:37:14;;;;;;;0.50;0.50;;;21.20;99.90;;;;;;5931502;24;20027;-84
2021/07/05 11:39:50;;;;;;;0.98;0.70;;;21.20;99.90;;;;;;5959066;24;20352;-85
2021/07/05 11:42:27;;;;;;;1.05;0.90;;;21.20;99.90;;;;;;5980446;24;20035;-84
2021/07/05 11:44:56;;;;;;;1.15;0.65;;;21.10;99.90;;;;;;5959093;23;20345;-84
2021/07/05 11:47:36;;;;;;;0.70;0.70;;;21.10;99.90;;;;;;5931772;24;20343;-84
2021/07/05 11:50:25;;;;;;;3.25;0.57;;;21.10;99.90;;;;;;5956362;23;20027;-78
2021/07/05 11:52:56;;;;;;;2.13;1.13;;;20.90;99.90;;;;;;6044462;23;20019;-78
2021/07/05 11:55:30;;;;;;;0.80;0.80;;;20.90;99.90;;;;;;6045412;23;20034;-79
2021/07/05 11:58:05;;;;;;;2.28;0.90;;;21.00;99.90;;;;;;6010796;23;20035;-79
2021/07/05 12:00:37;;;;;;;3.47;1.48;;;21.20;99.90;;;;;;6046379;23;20015;-78
2021/07/05 12:03:13;;;;;;;2.03;0.65;;;21.30;99.90;;;;;;6034163;23;20024;-78
2021/07/05 12:05:56;;;;;;;1.23;0.95;;;21.50;99.90;;;;;;6021477;23;20037;-77
2021/07/05 12:08:23;;;;;;;1.02;0.60;;;21.70;99.90;;;;;;6071773;23;20287;-79
2021/07/05 12:10:57;;;;;;;1.00;0.85;;;21.80;99.90;;;;;;6035943;23;20031;-78
2021/07/05 12:13:26;;;;;;;0.70;0.70;;;21.90;99.90;;;;;;6069610;23;20019;-78
2021/07/05 12:16:00;;;;;;;1.10;1.05;;;22.10;99.90;;;;;;6072982;23;20439;-79
2021/07/05 12:18:33;;;;;;;0.60;0.57;;;21.90;99.90;;;;;;6064650;23;20035;-80
2021/07/05 12:21:09;;;;;;;4.65;0.60;;;21.80;99.90;;;;;;6069765;23;20022;-78
2021/07/05 12:23:42;;;;;;;3.90;1.00;;;21.50;99.90;;;;;;6036355;23;20019;-78
2021/07/05 12:26:23;;;;;;;1.10;0.75;;;21.30;99.90;;;;;;6063029;23;20026;-78
2021/07/05 12:29:27;;;;;;;0.80;0.80;;;21.20;99.90;;;;;;6045571;23;20156;-80
2021/07/05 12:32:08;;;;;;;1.35;0.85;;;21.20;99.90;;;;;;6012661;23;20026;-77
2021/07/05 12:34:49;;;;;;;1.10;0.85;;;21.10;99.90;;;;;;6064405;23;20350;-78
2021/07/05 12:37:40;;;;;;;0.80;0.73;;;21.20;99.90;;;;;;6069002;23;20275;-81
2021/07/05 12:40:19;;;;;;;0.88;0.60;;;21.20;99.90;;;;;;6045385;23;20549;-81
2021/07/05 12:43:03;;;;;;;1.25;0.70;;;21.20;99.90;;;;;;6037632;23;20030;-77
2021/07/05 12:45:38;;;;;;;1.23;0.77;;;21.30;99.90;;;;;;6068432;23;20058;-77
2021/07/05 12:48:13;;;;;;;1.13;1.02;;;21.20;99.90;;;;;;6067506;23;20023;-78
2021/07/05 12:50:48;;;;;;;1.35;0.77;;;21.20;99.90;;;;;;6061759;23;20038;-80
2021/07/05 12:53:21;;;;;;;0.95;0.70;;;21.10;99.90;;;;;;6070608;23;20015;-78
2021/07/05 12:55:52;;;;;;;1.65;0.68;;;21.10;99.90;;;;;;6048874;23;20029;-83
2021/07/05 12:58:35;;;;;;;0.70;0.70;;;21.10;99.90;;;;;;6041735;23;20496;-81
2021/07/05 13:01:06;;;;;;;2.30;0.93;;;21.10;99.90;;;;;;6070981;23;20034;-79
2021/07/05 13:03:34;;;;;;;4.13;1.02;;;21.20;99.90;;;;;;6074614;23;20018;-80
2021/07/05 13:06:05;;;;;;;2.25;1.20;;;21.20;99.90;;;;;;6039152;23;20031;-79
2021/07/05 13:08:34;;;;;;;0.80;0.80;;;21.30;99.90;;;;;;6074533;23;20014;-79
2021/07/05 13:11:09;;;;;;;1.33;1.23;;;21.40;99.90;;;;;;6040169;23;20502;-80
2021/07/05 13:13:39;;;;;;;1.85;1.70;;;21.40;99.90;;;;;;6040419;23;20483;-79
2021/07/05 13:16:23;;;;;;;2.88;1.25;;;21.40;99.90;;;;;;6040377;23;20026;-77
2021/07/05 13:18:54;;;;;;;4.57;2.22;;;21.40;99.90;;;;;;6041239;23;20031;-77
2021/07/05 13:21:40;;;;;;;;;;;21.50;99.90;;;;;;6073358;23;20026;-78
2021/07/05 13:24:18;;;;;;;0.70;0.70;;;21.40;99.90;;;;;;6026554;23;19918;-79
2021/07/05 13:26:48;;;;;;;1.88;0.90;;;21.30;99.90;;;;;;6016119;23;20023;-80
2021/07/05 13:29:28;;;;;;;1.20;0.80;;;21.20;99.90;;;;;;5992882;23;20023;-79
2021/07/05 13:31:57;;;;;;;3.72;1.15;;;21.00;99.90;;;;;;6076258;23;20018;-79
2021/07/05 13:35:26;;;;;;;1.00;1.00;;;21.10;99.90;;;;;;6041701;23;20023;-84
2021/07/05 13:38:41;;;;;;;1.05;1.00;;;21.10;99.90;;;;;;5884076;24;20555;-85
2021/07/05 13:41:33;;;;;;;0.85;0.85;;;21.20;99.90;;;;;;5933456;24;20029;-85
2021/07/05 13:44:01;;;;;;;1.75;0.95;;;21.30;99.90;;;;;;5980578;23;20016;-83
2021/07/05 13:46:29;;;;;;;0.70;0.68;;;21.30;99.90;;;;;;6008061;23;20028;-82
2021/07/05 13:49:12;;;;;;;3.30;1.00;;;21.10;99.90;;;;;;6006350;23;20027;-81
2021/07/05 13:51:39;;;;;;;2.88;0.70;;;21.10;99.90;;;;;;6013454;23;20015;-82
2021/07/05 13:54:07;;;;;;;0.80;0.80;;;21.10;99.90;;;;;;6005408;23;20081;-83
2021/07/05 13:56:37;;;;;;;1.15;0.90;;;21.10;99.90;;;;;;6014045;23;20063;-83
2021/07/05 13:59:06;;;;;;;4.25;1.23;;;21.00;99.90;;;;;;6015783;23;20034;-83
2021/07/05 14:01:37;;;;;;;1.08;1.00;;;21.10;99.90;;;;;;5981963;23;20030;-82
2021/07/05 14:04:05;;;;;;;1.90;1.00;;;21.10;99.90;;;;;;5981104;23;20368;-83
2021/07/05 14:06:33;;;;;;;4.25;1.45;;;21.10;99.90;;;;;;6007093;23;20039;-80
2021/07/05 14:09:00;;;;;;;1.40;1.05;;;21.20;99.90;;;;;;6007570;23;20053;-82
2021/07/05 14:11:28;;;;;;;1.02;0.80;;;21.30;99.90;;;;;;6015606;23;20022;-82
2021/07/05 14:13:56;;;;;;;0.82;0.80;;;21.30;99.90;;;;;;6040300;23;20026;-82
2021/07/05 14:16:25;;;;;;;0.82;0.70;;;21.40;99.90;;;;;;6075550;23;20041;-81
2021/07/05 14:18:53;;;;;;;0.80;0.80;;;21.30;99.90;;;;;;6039611;23;20038;-83
2021/07/05 14:21:22;;;;;;;2.17;0.95;;;21.20;99.90;;;;;;6011589;23;20344;-84
2021/07/05 14:23:50;;;;;;;0.95;0.40;;;21.20;99.90;;;;;;6046582;23;20019;-83
2021/07/05 14:26:22;;;;;;;0.93;0.65;;;21.30;99.90;;;;;;6031835;23;20025;-87
2021/07/05 14:28:50;;;;;;;5.78;0.90;;;21.30;99.90;;;;;;6049153;23;20018;-80
2021/07/05 14:31:18;;;;;;;2.92;0.73;;;21.40;99.90;;;;;;6073143;23;20022;-79
2021/07/05 14:33:46;;;;;;;0.60;0.60;;;21.30;99.90;;;;;;6069476;23;20030;-81
2021/07/05 14:36:15;;;;;;;0.88;0.88;;;21.30;99.90;;;;;;6075700;23;20029;-79
2021/07/05 14:38:49;;;;;;;2.08;0.88;;;21.20;99.90;;;;;;6065872;23;20036;-81
2021/07/05 14:41:18;;;;;;;1.17;0.90;;;21.10;99.90;;;;;;6071615;23;20034;-79
2021/07/05 14:43:46;;;;;;;1.80;0.98;;;21.00;99.90;;;;;;6075326;23;20018;-81
2021/07/05 14:46:14;;;;;;;0.90;0.60;;;20.90;99.90;;;;;;6038127;23;20035;-82
2021/07/05 14:48:42;;;;;;;0.77;0.75;;;20.80;99.90;;;;;;6067492;23;20039;-86
2021/07/05 14:51:13;;;;;;;0.73;0.70;;;20.80;99.90;;;;;;6041415;23;20019;-88
2021/07/05 14:54:20;;;;;;;0.90;0.90;;;20.70;99.90;;;;;;6069645;23;20027;-88
2021/07/05 14:56:49;;;;;;;2.75;0.88;;;20.70;99.90;;;;;;6048064;23;20018;-83
2021/07/05 14:59:17;;;;;;;1.33;1.23;;;20.70;99.90;;;;;;6016644;23;20023;-84
2021/07/05 15:01:44;;;;;;;0.98;0.98;;;20.60;99.90;;;;;;6070605;23;20045;-84
2021/07/05 15:04:12;;;;;;;1.08;0.88;;;20.60;99.90;;;;;;6039608;23;20026;-84
2021/07/05 15:06:40;;;;;;;1.40;0.82;;;20.40;99.90;;;;;;6042177;23;20768;-83
2021/07/05 15:09:16;;;;;;;1.52;1.35;;;20.40;99.90;;;;;;6014733;23;20014;-83
2021/07/05 15:11:44;;;;;;;1.52;0.70;;;20.30;99.90;;;;;;6075200;23;20026;-80
2021/07/05 15:14:11;;;;;;;1.30;1.05;;;20.30;99.90;;;;;;6043176;23;20019;-82
2021/07/05 15:16:40;;;;;;;0.60;0.60;;;20.30;99.90;;;;;;6048893;23;20015;-83
2021/07/05 15:19:09;;;;;;;1.63;0.97;;;20.20;99.90;;;;;;6075146;23;20019;-83
2021/07/05 15:21:37;;;;;;;0.55;0.55;;;20.20;99.90;;;;;;6014996;23;20031;-83
2021/07/05 15:24:05;;;;;;;1.35;1.25;;;20.20;99.90;;;;;;6074398;23;20434;-82
2021/07/05 15:26:33;;;;;;;3.67;0.70;;;20.20;99.90;;;;;;6066784;23;20033;-82
2021/07/05 15:29:01;;;;;;;0.60;0.60;;;20.20;99.90;;;;;;6072713;23;20355;-81
2021/07/05 15:31:29;;;;;;;0.95;0.90;;;20.20;99.90;;;;;;6075294;23;20015;-82
2021/07/05 15:33:57;;;;;;;1.17;0.77;;;20.30;99.90;;;;;;6068841;23;20038;-82
2021/07/05 15:36:26;;;;;;;1.05;0.70;;;20.20;99.90;;;;;;6075303;23;20399;-82
2021/07/05 15:38:54;;;;;;;1.50;1.40;;;20.30;99.90;;;;;;6064785;23;20356;-82
2021/07/05 15:41:21;;;;;;;0.73;0.73;;;20.30;99.90;;;;;;6071185;23;20023;-82
2021/07/05 15:43:49;;;;;;;1.52;0.90;;;20.30;99.90;;;;;;6075538;23;20011;-82
2021/07/05 15:46:17;;;;;;;0.77;0.77;;;20.30;99.90;;;;;;6038940;23;20019;-82
2021/07/05 15:48:45;;;;;;;1.55;1.45;;;20.30;99.90;;;;;;6065945;23;20023;-82
2021/07/05 15:51:13;;;;;;;2.58;0.50;;;20.30;99.90;;;;;;6075423;23;20019;-82
2021/07/05 15:53:41;;;;;;;0.70;0.63;;;20.50;99.90;;;;;;6043882;23;20027;-82
2021/07/05 15:56:33;;;;;;;2.20;0.93;;;20.50;99.90;;;;;;6015787;23;20019;-85
2021/07/05 15:59:01;;;;;;;0.60;0.60;;;20.50;99.90;;;;;;6015649;23;20026;-82
2021/07/05 16:01:29;;;;;;;1.02;0.80;;;20.50;99.90;;;;;;6038336;23;20029;-82
2021/07/05 16:03:59;;;;;;;2.25;0.95;;;20.50;99.90;;;;;;6074951;23;20022;-83
2021/07/05 16:06:30;;;;;;;0.52;0.52;;;20.50;99.90;;;;;;6041311;23;20025;-82
2021/07/05 16:08:58;;;;;;;0.98;0.90;;;20.40;99.90;;;;;;6072073;23;20026;-83
2021/07/05 16:11:26;;;;;;;0.65;0.50;;;20.50;99.90;;;;;;6074811;23;20015;-83
2021/07/05 16:13:54;;;;;;;2.40;1.00;;;20.50;99.90;;;;;;6068899;23;20030;-83
2021/07/05 16:16:22;;;;;;;0.85;0.63;;;20.50;99.90;;;;;;6074947;23;20030;-84
2021/07/05 16:18:50;;;;;;;1.38;0.82;;;20.60;99.90;;;;;;6014293;23;20486;-82
2021/07/05 16:21:17;;;;;;;1.38;0.82;;;20.60;99.90;;;;;;6071572;23;20019;-84
2021/07/05 16:23:45;;;;;;;0.55;0.50;;;20.60;99.90;;;;;;6073872;23;20439;-82
2021/07/05 16:26:13;;;;;;;0.60;0.60;;;20.60;99.90;;;;;;6067659;23;20041;-83
2021/07/05 16:28:41;;;;;;;1.80;0.50;;;20.60;99.90;;;;;;6073607;23;20038;-83
2021/07/05 16:31:09;;;;;;;0.73;0.52;;;20.50;99.90;;;;;;6074940;23;20451;-83
2021/07/05 16:33:37;;;;;;;2.08;0.75;;;20.50;99.90;;;;;;6070222;23;20041;-83
2021/07/05 16:36:05;;;;;;;0.88;0.80;;;20.50;99.90;;;;;;6074869;23;20015;-83
2021/07/05 16:38:33;;;;;;;0.30;0.30;;;20.40;99.90;;;;;;6066138;23;20506;-82
2021/07/05 16:41:00;;;;;;;1.00;0.55;;;20.40;99.90;;;;;;6067101;23;20023;-82
2021/07/05 16:43:28;;;;;;;1.90;0.60;;;20.30;99.90;;;;;;6049805;23;20038;-84
2021/07/05 16:45:56;;;;;;;0.77;0.65;;;20.30;99.90;;;;;;6038793;23;20033;-82
2021/07/05 16:48:24;;;;;;;0.38;0.38;;;20.30;99.90;;;;;;6068085;23;20030;-82
2021/07/05 16:53:41;;;;;;;0.50;0.50;;;20.30;99.90;;;;;;6069579;23;20342;-82
2021/07/05 16:56:14;;;;;;;0.50;0.50;;;20.30;99.90;;;;;;6074705;23;20011;-82
2021/07/05 16:58:43;;;;;;;0.60;0.50;;;20.20;99.90;;;;;;6065850;23;20360;-81
2021/07/05 17:01:14;;;;;;;0.68;0.68;;;20.10;99.90;;;;;;6071692;23;20019;-82
2021/07/05 17:03:44;;;;;;;;;;;20.10;99.90;;;;;;6074654;23;20015;-81
2021/07/05 17:06:14;;;;;;;0.40;0.40;;;20.10;99.90;;;;;;6066022;23;19921;-81
2021/07/05 17:08:42;;;;;;;0.40;0.40;;;20.10;99.90;;;;;;6072705;23;20015;-82
2021/07/05 17:11:11;;;;;;;0.32;0.32;;;20.10;99.90;;;;;;6049653;23;20018;-82
2021/07/05 17:13:40;;;;;;;0.38;0.35;;;20.10;99.90;;;;;;6070123;23;20023;-82
2021/07/05 17:16:09;;;;;;;2.25;0.82;;;20.10;99.90;;;;;;6074069;23;20019;-81
2021/07/05 17:18:37;;;;;;;4.10;0.73;;;20.00;99.90;;;;;;6040454;23;20359;-81
2021/07/05 17:21:05;;;;;;;2.20;0.43;;;20.10;99.90;;;;;;6071660;23;20029;-82
2021/07/05 17:23:35;;;;;;;0.50;0.40;;;20.10;99.90;;;;;;6073732;23;20451;-82
2021/07/05 17:26:05;;;;;;;0.73;0.57;;;20.10;99.90;;;;;;6067876;23;20031;-82
2021/07/05 17:28:34;;;;;;;2.88;0.60;;;20.00;99.90;;;;;;6074561;23;20022;-82
2021/07/05 17:31:03;;;;;;;0.80;0.77;;;20.00;99.90;;;;;;6063872;23;20061;-81
2021/07/05 17:33:31;;;;;;;2.70;0.73;;;20.00;99.90;;;;;;6069919;23;20018;-81
2021/07/05 17:35:59;;;;;;;1.98;0.57;;;20.00;99.90;;;;;;6049315;23;20014;-81
2021/07/05 17:38:29;;;;;;;0.43;0.40;;;20.00;99.90;;;;;;6065600;23;20030;-81
2021/07/05 17:40:58;;;;;;;1.00;1.00;;;20.00;99.90;;;;;;6072132;23;20019;-81
2021/07/05 17:43:29;;;;;;;1.55;1.45;;;20.00;99.90;;;;;;6074428;23;20019;-81
2021/07/05 17:45:57;;;;;;;2.42;0.52;;;20.00;99.90;;;;;;6043493;23;20049;-82
2021/07/05 17:48:25;;;;;;;0.43;0.40;;;19.90;99.90;;;;;;6032696;23;20476;-81
2021/07/05 17:50:53;;;;;;;0.40;0.40;;;19.90;99.90;;;;;;6007714;23;20471;-82
2021/07/05 17:53:21;;;;;;;1.00;0.63;;;19.70;99.90;;;;;;6005790;23;20020;-82
2021/07/05 17:55:49;;;;;;;0.77;0.73;;;19.60;99.90;;;;;;6018427;23;20020;-82
2021/07/05 17:58:16;;;;;;;0.98;0.40;;;19.50;99.90;;;;;;6011767;23;20032;-82
2021/07/05 18:00:45;;;;;;;5.57;0.85;;;19.40;99.90;;;;;;6018335;23;20224;-82
2021/07/05 18:03:13;;;;;;;1.85;0.65;;;19.30;99.90;;;;;;6018869;23;20028;-82
2021/07/05 18:05:41;;;;;;;1.00;0.98;;;19.20;99.90;;;;;;6014318;23;20024;-82
2021/07/05 18:08:09;;;;;;;0.65;0.57;;;19.70;99.90;;;;;;6018010;23;20016;-81
2021/07/05 18:10:37;;;;;;;1.27;0.77;;;19.90;99.90;;;;;;6010058;23;20032;-82
2021/07/05 18:13:05;;;;;;;0.80;0.80;;;19.90;99.90;;;;;;6008989;23;20031;-82
2021/07/05 18:15:34;;;;;;;0.60;0.60;;;19.80;99.90;;;;;;5990815;24;20016;-82
2021/07/05 18:18:03;;;;;;;0.40;0.40;;;19.70;99.90;;;;;;5984135;23;20028;-82
2021/07/05 18:20:32;;;;;;;1.60;0.70;;;19.80;99.90;;;;;;5978996;24;20028;-82
2021/07/05 18:23:07;;;;;;;0.68;0.60;;;19.80;99.90;;;;;;5977898;24;20039;-82
2021/07/05 18:25:58;;;;;;;0.88;0.50;;;19.80;99.90;;;;;;5984943;23;20036;-83
2021/07/05 18:28:27;;;;;;;1.30;0.85;;;19.70;99.90;;;;;;5990281;24;20020;-83
2021/07/05 18:30:55;;;;;;;0.57;0.57;;;19.50;99.90;;;;;;5979214;24;20035;-80
2021/07/05 18:33:24;;;;;;;0.73;0.50;;;19.40;99.90;;;;;;5985896;23;20035;-82
2021/07/05 18:35:55;;;;;;;0.70;0.70;;;19.30;99.90;;;;;;5990035;24;20012;-84
2021/07/05 18:38:28;;;;;;;19.90;1.92;;;19.20;99.90;;;;;;5982132;23;20032;-82
2021/07/05 18:40:59;;;;;;;1.25;1.15;;;19.20;99.90;;;;;;5986662;23;20035;-83
2021/07/05 18:43:29;;;;;;;1.15;0.93;;;19.00;99.90;;;;;;5988760;24;20024;-83
2021/07/05 18:45:57;;;;;;;1.85;0.70;;;18.90;99.90;;;;;;5982999;24;20059;-86
2021/07/05 18:48:25;;;;;;;0.60;0.60;;;18.70;99.90;;;;;;6022168;23;20323;-84
2021/07/05 18:50:53;;;;;;;0.60;0.50;;;18.60;99.90;;;;;;6011091;23;20030;-84
2021/07/05 18:53:21;;;;;;;9.32;1.27;;;18.50;99.90;;;;;;6042696;23;20023;-83
2021/07/05 18:55:48;;;;;;;3.67;0.82;;;18.40;99.90;;;;;;6034577;23;20020;-84
2021/07/05 18:58:17;;;;;;;0.90;0.90;;;18.30;99.90;;;;;;6033959;23;20034;-83
2021/07/05 19:00:44;;;;;;;0.65;0.55;;;18.20;99.90;;;;;;6045182;23;20015;-83
2021/07/05 19:03:27;;;;;;;0.60;0.60;;;18.10;99.90;;;;;;6046657;23;20205;-83
2021/07/05 19:05:55;;;;;;;0.73;0.73;;;18.00;99.90;;;;;;6063565;23;20027;-83
2021/07/05 19:08:24;;;;;;;1.33;1.15;;;17.90;99.90;;;;;;6044872;23;20015;-84
2021/07/05 19:10:53;;;;;;;1.80;1.02;;;17.70;99.90;;;;;;6010629;23;20030;-83
2021/07/05 19:13:26;;;;;;;3.88;0.50;;;17.60;99.90;;;;;;6043209;23;20035;-84
2021/07/05 19:15:54;;;;;;;1.05;0.95;;;17.60;99.90;;;;;;6047109;23;20027;-84
2021/07/05 19:18:22;;;;;;;0.95;0.90;;;17.50;99.90;;;;;;6039158;23;20027;-84
2021/07/05 19:20:50;;;;;;;3.22;0.82;;;17.40;99.90;;;;;;6045281;23;20026;-84
2021/07/05 19:23:18;;;;;;;0.70;0.70;;;17.30;99.90;;;;;;6044509;23;20337;-84
2021/07/05 19:25:46;;;;;;;1.17;0.90;;;17.10;99.90;;;;;;6010951;23;20039;-84
2021/07/05 19:28:14;;;;;;;0.70;0.70;;;16.90;99.90;;;;;;6037009;23;20019;-84
2021/07/05 19:30:41;;;;;;;0.88;0.80;;;16.80;99.90;;;;;;6036842;23;20720;-83
2021/07/05 19:33:10;;;;;;;0.82;0.82;;;16.70;99.90;;;;;;6033837;23;20027;-83
2021/07/05 19:35:39;;;;;;;1.35;1.25;;;16.70;99.90;;;;;;6036409;23;20015;-83
2021/07/05 19:38:09;;;;;;;0.90;0.90;;;16.70;99.90;;;;;;6035358;23;20023;-83
2021/07/05 19:40:40;;;;;;;1.48;0.90;;;16.60;99.90;;;;;;6009125;23;20023;-83
2021/07/05 19:43:09;;;;;;;1.08;0.98;;;16.50;99.90;;;;;;5987508;23;20020;-83
2021/07/05 19:45:44;;;;;;;1.20;1.10;;;16.40;99.90;;;;;;6039494;23;20026;-83
2021/07/05 19:48:17;;;;;;;0.93;0.93;;;16.30;99.90;;;;;;6033763;23;20023;-83